Moonlight II — 9HFR8 — position and weather

sailwx.info

Track history (hours):
 
Tides and Currents Weather Stations Pressure Air Temp Water Temp Dewpoint Dewpoint Depression Visibility Wind Speed Wind Dir Waves Ship Positions

Moonlight II

Last reported at 2017-Jun-29 03:28 UTC. Time now 2017-Jun-29 03:54 UTC.
Position N 38°49' E 018°48'.

Length 82 m; draft 4.2 m.

Type: Ship. MMSI: 215934000.

Date/timePositionNaut miles runAvg speedWind from/ knotsBaromVisibWave heightAir tempDewpointWater temp
2017-Jun-29 03:28N 38°49' E 018°48'713.7
2017-Jun-29 02:56N 38°46' E 018°40'613.7
2017-Jun-29 02:30N 38°43' E 018°33'713.8
2017-Jun-29 02:00N 38°40' E 018°25'713.7
2017-Jun-29 01:29N 38°37' E 018°17'1313.5
2017-Jun-29 00:30N 38°32' E 018°01'2913.4
2017-Jun-28 22:20N 38°19' E 017°28'813.8
2017-Jun-28 21:44N 38°16' E 017°18'313.8
2017-Jun-28 21:30N 38°14' E 017°15'7313.7
2017-Jun-28 16:12N 37°47' E 015°49'29 0.6
2017-Jun-26 18:18N 37°44' E 015°13'0 0.0
2017-Jun-26 18:00N 37°44' E 015°13'0 0.0
2017-Jun-26 16:30N 37°44' E 015°13'3 4.1
2017-Jun-26 15:46N 37°46' E 015°15'311.4
2017-Jun-26 15:30N 37°49' E 015°17'  
2017-Jun-24 10:35N 37°50' E 015°17'0 4.1
2017-Jun-24 10:31N 37°50' E 015°17'0 0.5
2017-Jun-24 10:00N 37°50' E 015°17'0 0.1
2017-Jun-24 09:29N 37°50' E 015°17'0 0.1
2017-Jun-24 09:00N 37°50' E 015°17'0 0.0
2017-Jun-24 08:27N 37°50' E 015°17'0 0.0
2017-Jun-24 08:00N 37°50' E 015°17'0 0.0
2017-Jun-24 07:30N 37°50' E 015°17'0 0.0
2017-Jun-24 07:00N 37°50' E 015°17'0 0.0
2017-Jun-24 06:30N 37°50' E 015°17'0 0.1
2017-Jun-24 05:58N 37°50' E 015°17'0 0.0
2017-Jun-24 05:23N 37°50' E 015°17'1 2.6
2017-Jun-24 04:58N 37°50' E 015°18'3 7.0
2017-Jun-24 04:29N 37°52' E 015°22'13 7.3
2017-Jun-24 02:46N 38°03' E 015°30'2 8.4
2017-Jun-24 02:30N 38°05' E 015°32'4 8.1
2017-Jun-24 01:59N 38°08' E 015°34'4 8.9
2017-Jun-24 01:30N 38°12' E 015°36'6 9.6
2017-Jun-24 00:53N 38°17' E 015°40'411.5
2017-Jun-24 00:30N 38°20' E 015°37'611.1
2017-Jun-23 23:59N 38°25' E 015°32'611.4
2017-Jun-23 23:30N 38°29' E 015°28'711.5
2017-Jun-23 22:52N 38°35' E 015°22'126 3.1
2017-Jun-22 06:43N 40°35' E 014°32'3 9.0
2017-Jun-22 06:23N 40°35' E 014°29'510.1
2017-Jun-22 05:52N 40°35' E 014°22'3 7.9
2017-Jun-22 05:30N 40°34' E 014°18'2 0.2
2017-Jun-21 16:54N 40°32' E 014°15'0 0.3
2017-Jun-21 15:32N 40°32' E 014°15'0 0.1
2017-Jun-21 15:19N 40°32' E 014°15'0 0.0
2017-Jun-21 14:56N 40°32' E 014°15'0 0.0
2017-Jun-21 13:44N 40°32' E 014°15'0 0.0
2017-Jun-21 13:29N 40°32' E 014°15'0 0.0
2017-Jun-21 12:56N 40°32' E 014°15'0 0.1
2017-Jun-21 12:28N 40°32' E 014°15'0 0.0
2017-Jun-21 11:59N 40°32' E 014°15'2 0.3
2017-Jun-21 05:41N 40°34' E 014°16'1 0.1
2017-Jun-20 16:33N 40°34' E 014°14'0 0.3
2017-Jun-20 16:29N 40°34' E 014°14'0 0.0
2017-Jun-20 15:58N 40°34' E 014°14'0 0.1
2017-Jun-20 15:31N 40°34' E 014°14'0 0.1
2017-Jun-20 15:00N 40°34' E 014°14'0 0.1
2017-Jun-20 14:30N 40°34' E 014°14'0 0.0
2017-Jun-20 13:31N 40°34' E 014°14'2 3.8
2017-Jun-20 13:00N 40°36' E 014°15'1412.3
2017-Jun-20 11:54N 40°49' E 014°14'0 1.1
2017-Jun-20 11:30N 40°50' E 014°14'0 0.0
2017-Jun-20 11:00N 40°50' E 014°14'0 0.0
2017-Jun-20 10:30N 40°50' E 014°14'0 0.0
2017-Jun-20 09:48N 40°50' E 014°14'0 0.0
2017-Jun-20 09:30N 40°50' E 014°14'0 0.0
2017-Jun-20 08:36N 40°50' E 014°14'0 0.0
2017-Jun-20 08:30N 40°50' E 014°14'0 0.0
2017-Jun-20 07:21N 40°50' E 014°14'0 0.0
2017-Jun-20 06:51N 40°50' E 014°14'0 0.0
2017-Jun-20 06:21N 40°50' E 014°14'  
Track history (hours):
 
Tides and Currents Weather Stations Pressure Air Temp Water Temp Dewpoint Dewpoint Depression Visibility Wind Speed Wind Dir Waves Ship Positions

Moonlight II

Last reported at 2017-Jun-29 03:28 UTC. Time now 2017-Jun-29 03:54 UTC.
Position N 38°49' E 018°48'.

Length 82 m; draft 4.2 m.

Type: Ship. MMSI: 215934000.

Date/timePositionNaut miles runAvg speedWind from/ knotsBaromVisibWave heightAir tempDewpointWater temp
2017-Jun-29 03:28N 38°49' E 018°48'713.7
2017-Jun-29 02:56N 38°46' E 018°40'613.7
2017-Jun-29 02:30N 38°43' E 018°33'713.8
2017-Jun-29 02:00N 38°40' E 018°25'713.7
2017-Jun-29 01:29N 38°37' E 018°17'1313.5
2017-Jun-29 00:30N 38°32' E 018°01'2913.4
2017-Jun-28 22:20N 38°19' E 017°28'813.8
2017-Jun-28 21:44N 38°16' E 017°18'313.8
2017-Jun-28 21:30N 38°14' E 017°15'7313.7
2017-Jun-28 16:12N 37°47' E 015°49'29 0.6
2017-Jun-26 18:18N 37°44' E 015°13'0 0.0
2017-Jun-26 18:00N 37°44' E 015°13'0 0.0
2017-Jun-26 16:30N 37°44' E 015°13'3 4.1
2017-Jun-26 15:46N 37°46' E 015°15'311.4
2017-Jun-26 15:30N 37°49' E 015°17'  
2017-Jun-24 10:35N 37°50' E 015°17'0 4.1
2017-Jun-24 10:31N 37°50' E 015°17'0 0.5
2017-Jun-24 10:00N 37°50' E 015°17'0 0.1
2017-Jun-24 09:29N 37°50' E 015°17'0 0.1
2017-Jun-24 09:00N 37°50' E 015°17'0 0.0
2017-Jun-24 08:27N 37°50' E 015°17'0 0.0
2017-Jun-24 08:00N 37°50' E 015°17'0 0.0
2017-Jun-24 07:30N 37°50' E 015°17'0 0.0
2017-Jun-24 07:00N 37°50' E 015°17'0 0.0
2017-Jun-24 06:30N 37°50' E 015°17'0 0.1
2017-Jun-24 05:58N 37°50' E 015°17'0 0.0
2017-Jun-24 05:23N 37°50' E 015°17'1 2.6
2017-Jun-24 04:58N 37°50' E 015°18'3 7.0
2017-Jun-24 04:29N 37°52' E 015°22'13 7.3
2017-Jun-24 02:46N 38°03' E 015°30'2 8.4
2017-Jun-24 02:30N 38°05' E 015°32'4 8.1
2017-Jun-24 01:59N 38°08' E 015°34'4 8.9
2017-Jun-24 01:30N 38°12' E 015°36'6 9.6
2017-Jun-24 00:53N 38°17' E 015°40'411.5
2017-Jun-24 00:30N 38°20' E 015°37'611.1
2017-Jun-23 23:59N 38°25' E 015°32'611.4
2017-Jun-23 23:30N 38°29' E 015°28'711.5
2017-Jun-23 22:52N 38°35' E 015°22'126 3.1
2017-Jun-22 06:43N 40°35' E 014°32'3 9.0
2017-Jun-22 06:23N 40°35' E 014°29'510.1
2017-Jun-22 05:52N 40°35' E 014°22'3 7.9
2017-Jun-22 05:30N 40°34' E 014°18'2 0.2
2017-Jun-21 16:54N 40°32' E 014°15'0 0.3
2017-Jun-21 15:32N 40°32' E 014°15'0 0.1
2017-Jun-21 15:19N 40°32' E 014°15'0 0.0
2017-Jun-21 14:56N 40°32' E 014°15'0 0.0
2017-Jun-21 13:44N 40°32' E 014°15'0 0.0
2017-Jun-21 13:29N 40°32' E 014°15'0 0.0
2017-Jun-21 12:56N 40°32' E 014°15'0 0.1
2017-Jun-21 12:28N 40°32' E 014°15'0 0.0
2017-Jun-21 11:59N 40°32' E 014°15'2 0.3
2017-Jun-21 05:41N 40°34' E 014°16'1 0.1
2017-Jun-20 16:33N 40°34' E 014°14'0 0.3
2017-Jun-20 16:29N 40°34' E 014°14'0 0.0
2017-Jun-20 15:58N 40°34' E 014°14'0 0.1
2017-Jun-20 15:31N 40°34' E 014°14'0 0.1
2017-Jun-20 15:00N 40°34' E 014°14'0 0.1
2017-Jun-20 14:30N 40°34' E 014°14'0 0.0
2017-Jun-20 13:31N 40°34' E 014°14'2 3.8
2017-Jun-20 13:00N 40°36' E 014°15'1412.3
2017-Jun-20 11:54N 40°49' E 014°14'0 1.1
2017-Jun-20 11:30N 40°50' E 014°14'0 0.0
2017-Jun-20 11:00N 40°50' E 014°14'0 0.0
2017-Jun-20 10:30N 40°50' E 014°14'0 0.0
2017-Jun-20 09:48N 40°50' E 014°14'0 0.0
2017-Jun-20 09:30N 40°50' E 014°14'0 0.0
2017-Jun-20 08:36N 40°50' E 014°14'0 0.0
2017-Jun-20 08:30N 40°50' E 014°14'0 0.0
2017-Jun-20 07:21N 40°50' E 014°14'0 0.0
2017-Jun-20 06:51N 40°50' E 014°14'0 0.0
2017-Jun-20 06:21N 40°50' E 014°14'  

Dump ship's entire track history